Time;durP1;ratioP1;P1;durP2;ratioP2;P2;SDS_P1;SDS_P2;PMS_P1;PMS_P2;Temp;Humidity;BMP_temperature;BMP_pressure;BME280_temperature;BME280_humidity;BME280_pressure;Samples;Min_cycle;Max_cycle;Signal;HPM_P1;HPM_P2
2021/07/27 00:01:06;;;;;;;0.70;0.60;;;;;;;19.11;100.00;73063.97;5026999;28;20509;-71
2021/07/27 00:03:33;;;;;;;0.73;0.70;;;;;;;19.11;100.00;74066.91;5028486;28;20468;-71
2021/07/27 00:06:00;;;;;;;0.70;0.60;;;;;;;19.04;100.00;75061.03;5043352;28;20481;-71
2021/07/27 00:08:35;;;;;;;0.70;0.60;;;;;;;18.98;100.00;75722.03;5038184;28;21002;-71
2021/07/27 00:11:04;;;;;;;0.80;0.70;;;;;;;18.98;100.00;77060.78;5036576;28;20502;-72
2021/07/27 00:13:31;;;;;;;0.70;0.60;;;;;;;18.95;100.00;77725.97;5029991;28;20460;-71
2021/07/27 00:15:58;;;;;;;0.70;0.70;;;;;;;18.87;100.00;79053.13;5025948;28;20472;-71
2021/07/27 00:18:25;;;;;;;0.70;0.60;;;;;;;18.75;100.00;80711.75;5028145;28;20456;-72
2021/07/27 00:20:52;;;;;;;0.70;0.60;;;;;;;18.69;100.00;82042.03;5028202;28;20462;-71
2021/07/27 00:23:19;;;;;;;0.80;0.70;;;;;;;18.63;100.00;83039.03;5027522;28;20460;-72
2021/07/27 00:25:48;;;;;;;0.70;0.60;;;;;;;18.65;100.00;84382.16;5040157;28;21059;-71
2021/07/27 00:28:16;;;;;;;0.80;0.70;;;;;;;18.58;100.00;85042.88;5046978;28;20456;-71
2021/07/27 00:30:43;;;;;;;0.70;0.60;;;;;;;18.62;100.00;86053.72;5046091;28;20450;-71
2021/07/27 00:33:10;;;;;;;0.70;0.60;;;;;;;18.61;100.00;86386.78;5044291;28;20493;-71
2021/07/27 00:36:00;;;;;;;0.70;0.70;;;;;;;18.71;100.00;87073.28;5046912;28;20452;-71
2021/07/27 00:38:27;;;;;;;0.70;0.60;;;;;;;18.64;100.00;87398.09;5045782;28;20452;-71
2021/07/27 00:40:53;;;;;;;0.70;0.60;;;;;;;18.67;100.00;87402.66;5047640;28;20490;-71
2021/07/27 00:43:22;;;;;;;0.70;0.60;;;;;;;18.68;100.00;88074.34;5031473;28;20508;-72
2021/07/27 00:45:49;;;;;;;0.70;0.60;;;;;;;18.62;100.00;88736.19;5025751;28;20484;-71
2021/07/27 00:48:16;;;;;;;0.70;0.70;;;;;;;18.69;100.00;89083.28;5025914;28;20530;-71
2021/07/27 00:50:44;;;;;;;0.80;0.70;;;;;;;18.74;100.00;89426.69;5036076;28;20469;-71
2021/07/27 00:53:14;;;;;;;0.70;0.60;;;;;;;18.72;100.00;89423.56;5042225;28;20479;-71
2021/07/27 00:55:42;;;;;;;0.70;0.60;;;;;;;18.72;100.00;89422.81;5026597;28;20450;-71
2021/07/27 00:58:09;;;;;;;0.70;0.63;;;;;;;18.82;100.00;89774.00;5037729;28;20777;-71
2021/07/27 01:00:38;;;;;;;0.70;0.70;;;;;;;18.77;100.00;89767.00;5025110;28;20521;-71
2021/07/27 01:03:07;;;;;;;0.80;0.70;;;;;;;18.73;100.00;89760.00;5040978;28;20460;-72
2021/07/27 01:05:34;;;;;;;0.70;0.60;;;;;;;18.77;100.00;89767.00;5046573;28;20528;-71
2021/07/27 01:08:03;;;;;;;0.70;0.70;;;;;;;18.81;100.00;89436.69;5028508;28;20471;-71
2021/07/27 01:10:31;;;;;;;0.73;0.70;;;;;;;18.90;100.00;89450.63;5036076;28;20465;-71
2021/07/27 01:12:58;;;;;;;0.70;0.60;;;;;;;18.90;100.00;89114.13;5028185;28;20455;-71
2021/07/27 01:15:25;;;;;;;0.70;0.70;;;;;;;18.86;100.00;88773.06;5050088;28;20466;-71
2021/07/27 01:18:01;;;;;;;0.70;0.60;;;;;;;18.82;100.00;88767.69;5049974;28;20470;-72
2021/07/27 01:20:45;;;;;;;0.70;0.60;;;;;;;18.83;100.00;88433.56;5050708;28;20998;-71
2021/07/27 01:39:52;;;;;;;0.70;0.60;;;;;;;18.34;100.00;90372.84;5029942;28;20534;-71
2021/07/27 01:42:20;;;;;;;0.70;0.70;;;;;;;18.36;100.00;90375.19;5047497;28;20471;-72
2021/07/27 01:44:48;;;;;;;0.70;0.60;;;;;;;18.39;100.00;90714.66;5033229;28;20548;-72
2021/07/27 01:47:16;;;;;;;0.73;0.70;;;;;;;18.44;100.00;90723.28;5036499;28;20511;-71
2021/07/27 01:49:44;;;;;;;0.80;0.70;;;;;;;18.46;100.00;90390.03;5029623;28;20460;-72
2021/07/27 01:52:14;;;;;;;0.70;0.70;;;;;;;18.41;100.00;90382.19;5029851;28;20458;-71
2021/07/27 01:54:54;;;;;;;0.70;0.70;;;;;;;18.38;100.00;90042.00;5030317;28;20505;-71
2021/07/27 01:57:26;;;;;;;0.70;0.60;;;;;;;18.40;100.00;90045.09;5029622;28;20529;-71
2021/07/27 02:00:03;;;;;;;0.80;0.70;;;;;;;18.38;100.00;89706.47;5031035;28;20460;-71
2021/07/27 02:02:31;;;;;;;0.70;0.60;;;;;;;18.43;100.00;89714.22;5049202;28;20503;-72
2021/07/27 02:04:58;;;;;;;0.70;0.70;;;;;;;18.31;100.00;89361.72;5016690;28;20558;-71
2021/07/27 02:07:25;;;;;;;0.70;0.60;;;;;;;18.27;100.00;89019.38;5036880;28;21623;-71
2021/07/27 02:10:01;;;;;;;0.70;0.60;;;;;;;18.24;100.00;89014.75;5039480;28;20479;-71
2021/07/27 02:12:36;;;;;;;0.70;0.60;;;;;;;18.36;100.00;89033.22;5048290;28;20501;-71
2021/07/27 02:15:18;;;;;;;0.70;0.60;;;;;;;18.28;100.00;89021.66;5048555;28;20541;-71
2021/07/27 02:17:46;;;;;;;0.70;0.60;;;;;;;18.23;100.00;88678.66;5047410;28;20479;-71
2021/07/27 02:20:14;;;;;;;0.70;0.60;;;;;;;18.22;100.00;88341.78;5048563;28;20559;-71
2021/07/27 02:22:41;;;;;;;0.70;0.60;;;;;;;18.23;100.00;88342.59;5048838;28;20550;-71
2021/07/27 02:25:11;;;;;;;0.70;0.60;;;;;;;18.25;100.00;88346.38;5028315;28;20460;-71
2021/07/27 02:27:41;;;;;;;0.70;0.60;;;;;;;18.26;100.00;88012.66;5049040;28;20484;-71
2021/07/27 02:30:09;;;;;;;0.80;0.70;;;;;;;18.27;100.00;87678.91;5048591;28;20448;-71
2021/07/27 02:32:38;;;;;;;0.70;0.70;;;;;;;18.29;100.00;87346.69;5049056;28;20449;-71
2021/07/27 02:35:07;;;;;;;0.70;0.60;;;;;;;18.21;100.00;87334.59;5049380;28;20470;-72
2021/07/27 02:37:36;;;;;;;0.70;0.63;;;;;;;18.16;100.00;86991.91;5048652;28;20482;-71
2021/07/27 02:40:04;;;;;;;0.70;0.67;;;;;;;18.19;100.00;86995.66;5048042;28;20462;-71
2021/07/27 02:42:33;;;;;;;0.70;0.60;;;;;;;18.04;100.00;86973.81;5048576;28;20487;-71
2021/07/27 02:45:01;;;;;;;0.70;0.60;;;;;;;17.90;100.00;86952.75;5048577;28;20452;-71
2021/07/27 02:47:28;;;;;;;0.80;0.70;;;;;;;17.80;100.00;86604.28;5039394;28;20522;-71
2021/07/27 02:49:56;;;;;;;0.70;0.60;;;;;;;17.89;100.00;86617.03;5038217;28;20470;-71
2021/07/27 02:52:23;;;;;;;0.70;0.60;;;;;;;18.00;100.00;86633.53;5029839;28;20590;-71
2021/07/27 02:54:50;;;;;;;0.70;0.60;;;;;;;18.09;100.00;86312.00;5048394;28;20490;-71
2021/07/27 02:57:17;;;;;;;0.70;0.60;;;;;;;18.18;100.00;85989.66;5046811;28;20482;-71
2021/07/27 02:59:45;;;;;;;0.70;0.60;;;;;;;18.19;100.00;85321.16;5045181;28;20850;-71
2021/07/27 03:02:12;;;;;;;0.70;0.60;;;;;;;18.23;100.00;85327.06;5047156;28;20852;-71
2021/07/27 03:04:39;;;;;;;0.70;0.60;;;;;;;18.20;100.00;84987.66;5046337;28;20971;-71
2021/07/27 03:07:07;;;;;;;0.70;0.60;;;;;;;18.19;100.00;84651.28;5028437;28;20560;-71
2021/07/27 03:09:45;;;;;;;0.70;0.60;;;;;;;18.13;100.00;84306.88;4971653;28;1589741;-71
2021/07/27 03:12:12;;;;;;;0.70;0.60;;;;;;;18.10;100.00;83969.13;5011598;28;20224;-71
2021/07/27 03:14:38;;;;;;;0.70;0.70;;;;;;;18.11;100.00;83635.06;5028771;28;20453;-72
2021/07/27 03:17:07;;;;;;;0.70;0.60;;;;;;;18.00;100.00;83285.16;5029169;28;20503;-71
2021/07/27 03:19:34;;;;;;;0.70;0.60;;;;;;;17.85;100.00;82929.63;5042898;28;20972;-72
2021/07/27 03:22:01;;;;;;;0.70;0.70;;;;;;;17.84;100.00;82593.66;5047192;28;20557;-71
2021/07/27 03:24:28;;;;;;;0.70;0.60;;;;;;;17.79;100.00;82252.03;5048721;28;20554;-71
2021/07/27 03:26:57;;;;;;;0.70;0.70;;;;;;;17.68;100.00;81566.88;5048994;28;20484;-71
2021/07/27 03:29:24;;;;;;;0.70;0.60;;;;;;;17.68;100.00;81233.25;5047797;28;20511;-72
2021/07/27 03:31:51;;;;;;;0.70;0.60;;;;;;;17.63;100.00;80892.63;5048643;28;20460;-72
2021/07/27 03:34:19;;;;;;;0.70;0.60;;;;;;;17.68;100.00;80230.50;5047480;28;20883;-71
2021/07/27 03:36:47;;;;;;;0.70;0.60;;;;;;;17.73;100.00;79903.22;5048029;28;20877;-71
2021/07/27 03:39:14;;;;;;;0.70;0.70;;;;;;;17.77;100.00;79574.59;5048309;28;20454;-71
2021/07/27 03:41:42;;;;;;;0.70;0.60;;;;;;;17.71;100.00;78898.03;5041959;28;21055;-72
2021/07/27 03:44:09;;;;;;;0.70;0.60;;;;;;;17.63;100.00;78553.03;5027357;28;20453;-72
2021/07/27 03:46:36;;;;;;;0.70;0.70;;;;;;;17.50;100.00;77867.47;5026710;28;20465;-72
2021/07/27 03:49:03;;;;;;;0.70;0.60;;;;;;;17.38;100.00;77185.00;5043454;28;20534;-71
2021/07/27 03:51:31;;;;;;;0.70;0.60;;;;;;;17.27;100.00;76502.22;5046061;28;20531;-72
2021/07/27 03:54:19;;;;;;;0.70;0.60;;;;;;;17.18;100.00;75823.81;5048542;28;20822;-71
2021/07/27 03:56:46;;;;;;;0.70;0.60;;;;;;;17.07;100.00;74475.75;5048337;28;20976;-71
2021/07/27 03:59:14;;;;;;;0.70;0.60;;;;;;;17.03;100.00;73804.03;5047114;28;20472;-71
2021/07/27 04:01:42;;;;;;;0.70;0.60;;;;;;;16.99;100.00;72799.38;5042677;28;20452;-72
2021/07/27 04:04:09;;;;;;;0.70;0.70;;;;;;;16.95;100.00;71462.19;5028519;28;20451;-71
2021/07/27 04:06:37;;;;;;;0.77;0.70;;;;;;;16.94;100.00;70130.00;5027333;28;20502;-71
2021/07/27 04:09:04;;;;;;;0.70;0.60;;;;;;;16.96;100.00;69133.47;5027126;28;20477;-72
2021/07/27 04:11:31;;;;;;;0.70;0.70;;;;;;;17.00;100.00;68140.16;5029133;28;20461;-72
2021/07/27 04:13:58;;;;;;;0.70;0.60;;;;;;;16.99;100.00;66809.16;5048015;28;20454;-71
2021/07/27 04:16:26;;;;;;;0.70;0.60;;;;;;;17.00;100.00;65480.44;5047464;28;20523;-71
2021/07/27 04:18:53;;;;;;;0.70;0.70;;;;;;;17.04;100.00;63822.72;5029496;28;20492;-71
2021/07/27 04:21:20;;;;;;;0.70;0.60;;;;;;;17.07;100.00;62497.22;5047297;28;20819;-72
2021/07/27 04:23:48;;;;;;;0.70;0.60;;;;;;;17.14;100.00;61176.41;5046930;28;20453;-72
2021/07/27 04:26:15;;;;;;;0.70;0.70;;;;;;;17.34;100.00;60201.03;5045883;28;21034;-71
2021/07/27 04:28:43;;;;;;;0.70;0.60;;;;;;;17.66;100.00;59902.22;5030452;28;20474;-71
2021/07/27 04:31:10;;;;;;;0.70;0.60;;;;;;;17.90;100.00;59594.19;5038273;28;20466;-71
2021/07/27 04:33:37;;;;;;;0.70;0.60;;;;;;;18.09;100.00;59947.09;5030009;28;20501;-71
2021/07/27 04:36:07;;;;;;;0.70;0.60;;;;;;;18.30;100.00;60301.34;5046581;28;21032;-71
2021/07/27 04:38:34;;;;;;;0.70;0.60;;;;;;;18.46;100.00;60650.47;5046900;28;20507;-72
2021/07/27 04:41:06;;;;;;;0.70;0.60;;;;;;;18.67;100.00;61337.53;5047080;28;20963;-71
2021/07/27 04:43:34;;;;;;;0.70;0.60;;;;;;;18.78;100.00;62015.94;5033789;28;20501;-72
2021/07/27 04:46:03;;;;;;;0.80;0.70;;;;;;;18.99;100.00;63037.81;5027848;28;20504;-71
2021/07/27 04:48:30;;;;;;;0.70;0.60;;;;;;;19.06;100.00;63711.59;5041844;28;20539;-71
2021/07/27 04:50:57;;;;;;;0.70;0.60;;;;;;;19.00;100.00;64371.53;5045728;28;20440;-71
2021/07/27 04:53:25;;;;;;;0.70;0.60;;;;;;;18.96;100.00;65033.75;5028616;28;20480;-71
2021/07/27 04:55:52;;;;;;;0.70;0.60;;;;;;;18.89;100.00;66026.03;5034919;28;20466;-72
2021/07/27 04:58:21;;;;;;;0.70;0.70;;;;;;;18.92;100.00;66363.00;5036937;28;20467;-71
2021/07/27 05:00:48;;;;;;;0.70;0.70;;;;;;;18.91;100.00;66362.41;5039305;28;20487;-72
2021/07/27 05:03:17;;;;;;;0.80;0.70;;;;;;;18.90;100.00;66027.78;5026161;28;20457;-71
2021/07/27 05:05:44;;;;;;;0.73;0.70;;;;;;;18.93;100.00;66030.69;5027504;28;20808;-71
2021/07/27 05:08:11;;;;;;;0.90;0.90;;;;;;;19.05;100.00;65377.50;5027283;28;20484;-71
2021/07/27 05:10:38;;;;;;;0.70;0.60;;;;;;;19.12;100.00;64051.69;5027236;28;20480;-71
2021/07/27 05:13:05;;;;;;;0.70;0.60;;;;;;;19.06;100.00;61046.00;5027397;28;21035;-71
2021/07/27 05:15:33;;;;;;;0.70;0.60;;;;;;;19.04;100.00;59046.13;5025670;28;20986;-72
2021/07/27 05:18:04;;;;;;;0.70;0.60;;;;;;;19.10;100.00;56722.88;5038026;28;20538;-71
2021/07/27 05:20:31;;;;;;;0.70;0.60;;;;;;;19.16;100.00;53403.06;5046827;28;20451;-72
2021/07/27 05:22:58;;;;;;;0.70;0.60;;;;;;;19.19;100.00;45106.88;5028949;28;20554;-71
2021/07/27 05:25:25;;;;;;;0.80;0.70;;;;;;;19.23;100.00;36091.41;5046469;28;20509;-72
2021/07/27 05:27:52;;;;;;;0.70;0.60;;;;;;;19.20;100.00;27497.38;5046353;28;20476;-71
2021/07/27 05:30:20;;;;;;;0.80;0.70;;;;;;;19.36;100.00;20136.47;5047243;28;21013;-72
2021/07/27 05:32:48;;;;;;;0.70;0.60;;;;;;;19.39;100.00;9645.38;5046788;28;20804;-71
2021/07/27 05:35:16;;;;;;;0.80;0.70;;;;;;;19.46;100.00;2347.41;5046574;28;20451;-71
2021/07/27 05:37:44;;;;;;;0.70;0.60;;;;;;;19.62;100.00;-3380.75;5033196;28;20541;-72
2021/07/27 05:40:11;;;;;;;0.70;0.70;;;;;;;19.60;100.00;-10125.41;5026238;28;20523;-71
2021/07/27 05:42:39;;;;;;;0.70;0.60;;;;;;;19.70;100.00;-14363.69;5030727;28;20554;-72
2021/07/27 05:45:06;;;;;;;0.70;0.60;;;;;;;19.68;100.00;-17954.16;5046439;28;20828;-71
2021/07/27 05:47:33;;;;;;;0.70;0.60;;;;;;;19.78;100.00;-19487.41;5043383;28;21033;-72
2021/07/27 05:50:03;;;;;;;0.70;0.60;;;;;;;19.87;100.00;-21220.06;5046851;28;20495;-72
2021/07/27 05:52:30;;;;;;;0.70;0.70;;;;;;;20.16;100.00;-21228.00;5046821;28;20448;-72
2021/07/27 05:54:57;;;;;;;0.70;0.60;;;;;;;20.12;100.00;-21226.91;5045729;28;20967;-71
2021/07/27 05:57:24;;;;;;;0.70;0.70;;;;;;;20.37;100.00;-21233.59;5032260;28;20446;-72
2021/07/27 05:59:52;;;;;;;0.70;0.60;;;;;;;20.30;100.00;-21231.53;5026759;28;20838;-71
2021/07/27 06:02:22;;;;;;;0.70;0.60;;;;;;;20.47;100.00;-21236.19;5029931;28;20431;-71
2021/07/27 06:04:50;;;;;;;0.70;0.60;;;;;;;20.58;100.00;-21239.06;5029288;28;20969;-72
2021/07/27 06:07:18;;;;;;;0.73;0.60;;;;;;;20.61;100.00;-21240.00;5030448;28;20461;-71
2021/07/27 06:09:45;;;;;;;0.70;0.60;;;;;;;20.48;100.00;-21236.59;5029813;28;20534;-71
2021/07/27 06:12:12;;;;;;;0.80;0.70;;;;;;;20.47;100.00;-21236.19;5030349;28;20492;-71
2021/07/27 06:14:39;;;;;;;0.80;0.70;;;;;;;20.57;100.00;-21238.91;5029208;28;20508;-71
2021/07/27 06:17:11;;;;;;;0.70;0.60;;;;;;;20.63;100.00;-21240.56;5032341;28;20460;-71
2021/07/27 06:19:38;;;;;;;0.70;0.60;;;;;;;20.79;100.00;-21244.66;5046247;28;20452;-71
2021/07/27 06:22:06;;;;;;;0.70;0.60;;;;;;;20.79;100.00;-21244.66;5028786;28;20479;-72
2021/07/27 06:24:34;;;;;;;0.80;0.70;;;;;;;21.07;100.00;-21252.28;5030078;28;20441;-71
2021/07/27 06:27:01;;;;;;;0.70;0.70;;;;;;;20.82;100.00;-21245.47;5029249;28;20450;-72
2021/07/27 06:29:28;;;;;;;0.77;0.63;;;;;;;20.89;100.00;-21247.38;5028456;28;20474;-71
2021/07/27 06:31:55;;;;;;;0.70;0.60;;;;;;;20.92;100.00;-21248.19;5029732;28;20467;-72
2021/07/27 06:34:23;;;;;;;0.70;0.60;;;;;;;20.93;100.00;-21248.47;5029545;28;20949;-71
2021/07/27 06:36:50;;;;;;;0.70;0.60;;;;;;;20.89;100.00;-21247.50;5032018;28;20456;-72
2021/07/27 06:39:17;;;;;;;0.73;0.70;;;;;;;20.59;100.00;-21239.31;5047468;28;20430;-72
2021/07/27 06:41:45;;;;;;;0.70;0.70;;;;;;;20.52;100.00;-21237.41;5049157;28;20466;-72
2021/07/27 06:44:12;;;;;;;0.70;0.70;;;;;;;20.94;100.00;-21248.75;5037276;28;20437;-72
2021/07/27 06:46:39;;;;;;;0.70;0.60;;;;;;;21.14;100.00;-21254.19;5028339;28;20432;-72
2021/07/27 06:49:07;;;;;;;0.73;0.60;;;;;;;20.95;100.00;-21249.16;5047764;28;20454;-71
2021/07/27 06:51:34;;;;;;;0.77;0.70;;;;;;;20.88;100.00;-21247.09;5049085;28;21086;-71
2021/07/27 06:54:01;;;;;;;0.80;0.60;;;;;;;20.95;100.00;-21249.00;5049172;28;20914;-71
2021/07/27 06:56:28;;;;;;;0.70;0.60;;;;;;;21.08;100.00;-21252.56;5047466;28;20970;-71
2021/07/27 06:58:57;;;;;;;0.70;0.60;;;;;;;20.90;100.00;-21247.66;5030302;28;20945;-71
2021/07/27 07:01:24;;;;;;;0.70;0.70;;;;;;;20.80;100.00;-21245.06;5028808;28;20519;-71
2021/07/27 07:03:51;;;;;;;0.80;0.70;;;;;;;20.95;100.00;-21249.00;5032826;28;20479;-72
2021/07/27 07:06:18;;;;;;;0.70;0.60;;;;;;;20.99;100.00;-21250.09;5028182;28;20859;-72
2021/07/27 07:08:47;;;;;;;0.70;0.60;;;;;;;21.11;100.00;-21253.38;5047732;28;20468;-73
2021/07/27 07:11:14;;;;;;;0.70;0.60;;;;;;;21.16;100.00;-21254.59;5048076;28;20448;-72
2021/07/27 07:13:43;;;;;;;0.70;0.70;;;;;;;21.02;100.00;-21250.91;5049155;28;20448;-72
2021/07/27 07:16:13;;;;;;;0.70;0.60;;;;;;;20.88;100.00;-21247.25;5048283;28;20426;-71
2021/07/27 07:18:40;;;;;;;0.80;0.60;;;;;;;21.10;100.00;-21253.09;5049256;28;20456;-72
2021/07/27 07:21:07;;;;;;;0.70;0.60;;;;;;;21.12;100.00;-21253.50;5051418;28;20466;-71
2021/07/27 07:23:35;;;;;;;0.70;0.60;;;;;;;21.42;100.00;-21261.56;5046962;28;20964;-72
2021/07/27 07:26:03;;;;;;;0.70;0.60;;;;;;;21.33;100.00;-21259.09;5021104;28;21082;-71
2021/07/27 07:28:30;;;;;;;0.80;0.70;;;;;;;21.37;100.00;-21260.34;5041108;28;20441;-72
2021/07/27 07:30:57;;;;;;;0.70;0.60;;;;;;;21.43;100.00;-21261.84;5039146;28;20744;-71
2021/07/27 07:33:26;;;;;;;0.70;0.60;;;;;;;21.76;100.00;-21270.56;5041875;28;20529;-72
2021/07/27 07:35:54;;;;;;;0.70;0.60;;;;;;;22.10;100.00;-21279.69;5044528;28;20437;-72
2021/07/27 07:38:23;;;;;;;0.80;0.70;;;;;;;22.21;100.00;-21282.69;5047444;28;20438;-72
2021/07/27 07:40:50;;;;;;;0.70;0.60;;;;;;;22.26;100.00;-21283.91;5047493;28;20426;-72
2021/07/27 07:43:17;;;;;;;0.80;0.60;;;;;;;22.33;100.00;-21285.81;5048054;28;20844;-72
2021/07/27 07:45:44;;;;;;;0.73;0.60;;;;;;;22.04;100.00;-21278.19;5046399;28;20509;-72
2021/07/27 07:48:11;;;;;;;0.70;0.70;;;;;;;21.86;100.00;-21273.28;5028515;28;20450;-72
2021/07/27 07:50:39;;;;;;;0.70;0.60;;;;;;;22.12;100.00;-21280.25;5031293;28;20566;-73
2021/07/27 07:53:06;;;;;;;0.70;0.60;;;;;;;22.15;100.00;-21281.19;5037037;28;20423;-71
2021/07/27 07:55:33;;;;;;;0.80;0.60;;;;;;;22.34;100.00;-21286.09;5030176;28;20466;-72
2021/07/27 07:58:01;;;;;;;0.70;0.60;;;;;;;22.35;100.00;-21286.38;5038527;28;20484;-72
2021/07/27 08:00:28;;;;;;;0.70;0.60;;;;;;;22.81;100.00;-21298.63;5036293;28;20556;-72
2021/07/27 08:02:57;;;;;;;0.70;0.60;;;;;;;23.01;100.00;-21304.06;5039797;28;20474;-72
2021/07/27 08:05:24;;;;;;;0.70;0.60;;;;;;;23.54;100.00;-21318.22;5039088;28;20463;-73
2021/07/27 08:07:52;;;;;;;0.80;0.70;;;;;;;23.52;100.00;-21317.66;5036059;28;20472;-72
2021/07/27 08:10:19;;;;;;;0.80;0.60;;;;;;;23.35;100.00;-21313.03;5028095;28;20496;-72
2021/07/27 08:12:49;;;;;;;0.70;0.60;;;;;;;23.12;100.00;-21307.06;5035182;28;20496;-72
2021/07/27 08:15:24;;;;;;;0.80;0.60;;;;;;;23.43;100.00;-21315.09;5026922;28;20460;-72
2021/07/27 08:17:50;;;;;;;0.77;0.60;;;;;;;;;;5027948;28;20457;-71
2021/07/27 08:20:17;;;;;;;0.80;0.60;;;;;;;24.06;100.00;-21332.06;5029702;28;20991;-72
2021/07/27 08:22:45;;;;;;;0.80;0.60;;;;;;;24.38;100.00;-21340.50;5027281;28;20646;-72
2021/07/27 08:25:18;;;;;;;0.70;0.60;;;;;;;23.65;100.00;-21320.94;5030008;28;20509;-72
2021/07/27 08:27:46;;;;;;;0.70;0.60;;;;;;;23.95;100.00;-21328.94;5028342;28;20579;-72
2021/07/27 08:30:15;;;;;;;0.80;0.60;;;;;;;24.32;100.00;-21339.00;5043926;28;21325;-73
2021/07/27 08:32:46;;;;;;;0.70;0.60;;;;;;;24.48;100.00;-21343.22;5042008;28;20955;-72
2021/07/27 08:35:14;;;;;;;0.70;0.60;;;;;;;24.73;100.00;-21349.72;5027987;28;20476;-73
2021/07/27 08:37:41;;;;;;;0.70;0.60;;;;;;;24.90;100.00;-21354.34;5045452;28;20455;-72
2021/07/27 08:40:09;;;;;;;0.70;0.50;;;;;;;25.04;100.00;-21358.13;5028643;28;20539;-72
2021/07/27 08:42:41;;;;;;;0.70;0.53;;;;;;;24.94;100.00;-21355.41;5026672;28;20463;-72
2021/07/27 08:45:09;;;;;;;0.70;0.50;;;;;;;25.08;100.00;-21359.09;5026416;28;20452;-73
2021/07/27 08:47:39;;;;;;;0.70;0.60;;;;;;;24.76;100.00;-21350.53;5044549;28;20475;-72
2021/07/27 08:50:09;;;;;;;0.70;0.60;;;;;;;24.55;100.00;-21345.09;5047092;28;20986;-72
2021/07/27 08:52:37;;;;;;;1.03;0.73;;;;;;;24.50;100.00;-21343.75;5047726;28;20857;-73
2021/07/27 08:55:05;;;;;;;0.70;0.60;;;;;;;24.44;100.00;-21342.13;5032698;28;20548;-72
2021/07/27 08:57:32;;;;;;;0.70;0.60;;;;;;;24.99;100.00;-21356.78;5025960;28;20480;-73
2021/07/27 09:00:01;;;;;;;0.70;0.50;;;;;;;25.68;100.00;-21374.94;5027121;28;20492;-73
2021/07/27 09:02:29;;;;;;;0.70;0.50;;;;;;;26.35;100.00;-21392.69;5028384;28;20816;-73
2021/07/27 09:05:10;;;;;;;0.70;0.60;;;;;;;26.94;100.00;-21408.38;5026612;28;20468;-72
2021/07/27 09:07:37;;;;;;;0.70;0.50;;;;;;;27.34;100.00;-21419.06;5047715;28;20448;-73
2021/07/27 09:10:14;;;;;;;0.70;0.60;;;;;;;26.84;100.00;-21405.81;5046633;28;20475;-73
2021/07/27 09:12:55;;;;;;;0.70;0.50;;;;;;;26.62;100.00;-21400.00;5046211;28;20463;-74
2021/07/27 09:15:25;;;;;;;0.70;0.50;;;;;;;26.90;100.00;-21407.31;5046420;28;20456;-74
2021/07/27 09:17:54;;;;;;;0.70;0.50;;;;;;;27.03;100.00;-21410.81;5046251;28;20459;-74
2021/07/27 09:20:32;;;;;;;0.70;0.50;;;;;;;26.33;100.00;-21392.28;5037686;28;20475;-73
2021/07/27 09:22:59;;;;;;;0.80;0.60;;;;;;;25.54;100.00;-21371.41;5027641;28;20503;-73
2021/07/27 09:25:29;;;;;;;0.70;0.50;;;;;;;25.32;100.00;-21365.47;5025772;28;20460;-73
2021/07/27 09:28:04;;;;;;;0.70;0.60;;;;;;;25.92;100.00;-21381.31;5037129;28;20480;-73
2021/07/27 09:30:33;;;;;;;0.70;0.50;;;;;;;25.90;100.00;-21380.78;5045847;28;20451;-74
2021/07/27 09:33:01;;;;;;;0.70;0.50;;;;;;;26.09;100.00;-21385.78;5027465;28;20448;-72
2021/07/27 09:35:28;;;;;;;0.70;0.60;;;;;;;26.43;100.00;-21394.84;5028856;28;20445;-73
2021/07/27 09:38:18;;;;;;;0.70;0.60;;;;;;;26.31;100.00;-21391.59;5029500;28;20487;-73
2021/07/27 09:40:50;;;;;;;0.70;0.50;;;;;;;26.86;100.00;-21406.34;5026006;28;20822;-73
2021/07/27 09:43:38;;;;;;;0.70;0.50;;;;;;;27.55;100.00;-21424.59;5030038;28;20468;-72
2021/07/27 09:46:07;;;;;;;0.70;0.50;;;;;;;27.72;100.00;-21429.06;5033486;28;20503;-71
2021/07/27 09:48:39;;;;;;;0.70;0.50;;;;;;;27.92;100.00;-21434.47;5040467;28;20546;-73
2021/07/27 09:51:07;;;;;;;0.70;0.50;;;;;;;27.19;100.00;-21415.16;5031280;28;20484;-73
2021/07/27 09:53:34;;;;;;;0.70;0.50;;;;;;;26.65;100.00;-21400.69;5031157;28;21538;-73
2021/07/27 09:56:02;;;;;;;0.70;0.50;;;;;;;25.62;100.00;-21373.31;5029297;28;20510;-73
2021/07/27 09:58:29;;;;;;;0.87;0.87;;;;;;;25.23;100.00;-21363.03;5029948;28;20501;-72
2021/07/27 10:01:00;;;;;;;0.80;0.60;;;;;;;25.16;100.00;-21361.13;5034341;28;20466;-73
2021/07/27 10:03:33;;;;;;;0.70;0.60;;;;;;;24.84;100.00;-21352.72;5050287;28;20452;-73
2021/07/27 10:06:03;;;;;;;0.77;0.57;;;;;;;24.74;100.00;-21350.00;5050674;28;20509;-73
2021/07/27 10:08:32;;;;;;;0.70;0.50;;;;;;;25.01;100.00;-21357.19;5029770;28;20560;-73
2021/07/27 10:11:07;;;;;;;0.70;0.50;;;;;;;24.56;100.00;-21345.25;5029129;28;20552;-73
2021/07/27 10:13:35;;;;;;;0.70;0.50;;;;;;;24.53;100.00;-21344.44;5029311;28;20502;-74
2021/07/27 10:16:03;;;;;;;0.70;0.57;;;;;;;24.83;100.00;-21352.56;5032355;28;20470;-72
2021/07/27 10:18:33;;;;;;;0.70;0.60;;;;;;;25.48;100.00;-21369.81;5030443;28;20861;-73
2021/07/27 10:21:23;;;;;;;0.70;0.50;;;;;;;26.03;100.00;-21384.28;5029721;28;20449;-73
2021/07/27 10:23:51;;;;;;;0.70;0.50;;;;;;;25.35;100.00;-21366.28;5029127;28;20465;-73
2021/07/27 10:26:28;;;;;;;0.70;0.60;;;;;;;25.53;100.00;-21371.16;5029958;28;20507;-73
2021/07/27 10:28:56;;;;;;;0.70;0.60;;;;;;;25.79;100.00;-21377.94;5045382;28;20485;-73
2021/07/27 10:31:33;;;;;;;1.10;1.00;;;;;;;25.86;100.00;-21379.81;5048174;28;20455;-73
2021/07/27 10:34:03;;;;;;;0.70;0.53;;;;;;;25.87;100.00;-21380.09;5049443;28;20452;-73
2021/07/27 10:36:34;;;;;;;0.70;0.60;;;;;;;25.78;100.00;-21377.66;5049222;28;20513;-73
2021/07/27 10:39:06;;;;;;;0.70;0.60;;;;;;;25.42;100.00;-21368.16;5048839;28;20463;-74
2021/07/27 10:41:38;;;;;;;0.70;0.60;;;;;;;25.24;100.00;-21363.28;5048472;28;20464;-73
2021/07/27 10:44:06;;;;;;;0.70;0.60;;;;;;;24.87;100.00;-21353.53;5041067;28;20460;-73
2021/07/27 10:46:38;;;;;;;0.70;0.60;;;;;;;25.13;100.00;-21360.31;5049201;28;20455;-73
2021/07/27 10:49:14;;;;;;;0.97;0.80;;;;;;;25.20;100.00;-21362.34;5049356;28;20566;-73
2021/07/27 10:51:44;;;;;;;0.70;0.60;;;;;;;25.88;100.00;-21380.22;5049934;28;20452;-73
2021/07/27 10:54:13;;;;;;;0.70;0.60;;;;;;;26.89;100.00;-21407.16;5048722;28;20935;-73
2021/07/27 10:56:47;;;;;;;0.80;0.60;;;;;;;27.54;100.00;-21424.34;5048031;28;20471;-72
2021/07/27 10:59:19;;;;;;;0.80;0.70;;;;;;;28.62;100.00;-21452.81;5032006;28;20461;-73
2021/07/27 11:01:47;;;;;;;0.70;0.50;;;;;;;29.48;100.00;-21475.59;5048828;28;20543;-73
2021/07/27 11:04:17;;;;;;;0.70;0.50;;;;;;;28.95;100.00;-21461.47;5041708;28;20488;-71
2021/07/27 11:06:45;;;;;;;0.70;0.50;;;;;;;29.12;100.00;-21466.03;5039421;28;20464;-70
2021/07/27 11:09:12;;;;;;;0.70;0.50;;;;;;;29.89;100.00;-21486.25;5027851;28;20480;-70
2021/07/27 11:11:44;;;;;;;0.70;0.50;;;;;;;28.46;100.00;-21448.50;5027184;28;20500;-71
2021/07/27 11:14:19;;;;;;;0.70;0.50;;;;;;;29.28;100.00;-21470.34;5029328;28;20449;-71
2021/07/27 11:16:48;;;;;;;0.70;0.50;;;;;;;30.20;100.00;-21494.47;5027564;28;21051;-71
2021/07/27 11:19:26;;;;;;;0.70;0.50;;;;;;;31.17;100.00;-21520.00;5039802;28;20459;-70
2021/07/27 11:21:55;;;;;;;0.80;0.50;;;;;;;32.61;100.00;-21557.84;5049496;28;20550;-70
2021/07/27 11:24:23;;;;;;;0.90;0.60;;;;;;;31.71;100.00;-21534.38;5049610;28;20458;-70
2021/07/27 11:26:51;;;;;;;0.80;0.50;;;;;;;30.94;100.00;-21513.97;5047193;28;20543;-71
2021/07/27 11:29:19;;;;;;;0.80;0.60;;;;;;;29.28;100.00;-21470.34;5046876;28;21055;-71
2021/07/27 11:31:47;;;;;;;0.70;0.50;;;;;;;28.80;100.00;-21457.69;5047703;28;20463;-70
2021/07/27 11:34:27;;;;;;;0.70;0.50;;;;;;;29.18;100.00;-21467.66;5029595;28;20469;-70
2021/07/27 11:36:57;;;;;;;0.70;0.50;;;;;;;29.43;100.00;-21474.13;5025404;28;21072;-70
2021/07/27 11:39:25;;;;;;;0.70;0.50;;;;;;;28.81;100.00;-21457.94;5027286;28;20848;-70
2021/07/27 11:42:02;;;;;;;0.70;0.50;;;;;;;29.11;100.00;-21465.91;5033121;28;20514;-70
2021/07/27 11:44:29;;;;;;;0.70;0.50;;;;;;;29.76;100.00;-21483.03;5030464;28;20460;-70
2021/07/27 11:46:57;;;;;;;0.70;0.50;;;;;;;29.97;100.00;-21488.41;5027351;28;20452;-70